createdAt,value
2022-12-08T00:00:16.196Z,22
2022-12-08T00:01:16.198Z,22
2022-12-08T00:02:16.319Z,21
2022-12-08T00:03:16.309Z,22
2022-12-08T00:04:16.238Z,23
2022-12-08T00:05:16.206Z,22
2022-12-08T00:06:16.200Z,21
2022-12-08T00:07:16.204Z,24
2022-12-08T00:08:16.239Z,24
2022-12-08T00:09:16.210Z,21
2022-12-08T00:10:47.126Z,20
2022-12-08T00:11:16.223Z,22
2022-12-08T00:12:16.207Z,21
2022-12-08T00:13:16.207Z,22
2022-12-08T00:14:16.211Z,24
2022-12-08T00:15:16.196Z,22
2022-12-08T00:16:16.262Z,22
2022-12-08T00:17:16.229Z,21
2022-12-08T00:18:16.234Z,22
2022-12-08T00:19:16.202Z,21
2022-12-08T00:20:16.200Z,20
2022-12-08T00:21:16.202Z,20
2022-12-08T00:22:16.198Z,20
2022-12-08T00:23:16.202Z,21
2022-12-08T00:24:16.207Z,22
2022-12-08T00:25:16.198Z,22
2022-12-08T00:26:16.208Z,23
2022-12-08T00:27:16.293Z,21
2022-12-08T00:28:16.247Z,21
2022-12-08T00:29:17.641Z,19
2022-12-08T00:30:16.221Z,20
2022-12-08T00:31:16.270Z,20
2022-12-08T00:32:16.514Z,21
2022-12-08T00:33:16.191Z,20
2022-12-08T00:34:16.210Z,21
2022-12-08T00:35:16.236Z,23
2022-12-08T00:36:16.193Z,21
2022-12-08T00:37:18.049Z,21
2022-12-08T00:38:16.200Z,21
2022-12-08T00:39:16.211Z,22
2022-12-08T00:40:16.207Z,19
2022-12-08T00:41:16.212Z,22
2022-12-08T00:42:16.228Z,19
2022-12-08T00:43:16.232Z,22
2022-12-08T00:44:16.213Z,20
2022-12-08T00:45:16.200Z,20
2022-12-08T00:46:16.315Z,19
2022-12-08T00:47:19.820Z,23
2022-12-08T00:48:16.197Z,23
2022-12-08T00:49:16.192Z,20
2022-12-08T00:50:16.198Z,21
2022-12-08T00:51:16.193Z,23
2022-12-08T00:52:16.206Z,21
2022-12-08T00:53:16.200Z,22
2022-12-08T00:54:16.205Z,18
2022-12-08T00:55:16.196Z,18
2022-12-08T00:56:16.249Z,22
2022-12-08T00:57:16.238Z,22
2022-12-08T00:58:16.208Z,21
2022-12-08T00:59:16.193Z,21
2022-12-08T01:00:16.203Z,19
2022-12-08T01:01:16.283Z,20
2022-12-08T01:02:16.211Z,22
2022-12-08T01:03:16.289Z,19
2022-12-08T01:04:16.189Z,21
2022-12-08T01:05:16.246Z,19
2022-12-08T01:06:16.230Z,19
2022-12-08T01:07:16.205Z,19
2022-12-08T01:08:16.349Z,19
2022-12-08T01:09:16.344Z,16
2022-12-08T01:10:16.200Z,20
2022-12-08T01:11:16.190Z,19
2022-12-08T01:12:16.197Z,20
2022-12-08T01:13:16.193Z,19
2022-12-08T01:14:16.193Z,19
2022-12-08T01:15:16.212Z,20
2022-12-08T01:16:16.296Z,17
2022-12-08T01:17:16.192Z,17
2022-12-08T01:18:16.199Z,19
2022-12-08T01:19:16.239Z,18
2022-12-08T01:20:16.193Z,16
2022-12-08T01:21:16.190Z,18
2022-12-08T01:22:16.203Z,15
2022-12-08T01:23:16.192Z,17
2022-12-08T01:24:16.185Z,16
2022-12-08T01:25:16.225Z,18
2022-12-08T01:26:16.205Z,18
2022-12-08T01:27:16.192Z,16
2022-12-08T01:28:16.195Z,19
2022-12-08T01:29:16.194Z,19
2022-12-08T01:30:16.197Z,15
2022-12-08T01:31:16.218Z,18
2022-12-08T01:32:16.187Z,17
2022-12-08T01:33:16.184Z,15
2022-12-08T01:34:16.208Z,17
2022-12-08T01:35:16.161Z,17
2022-12-08T01:36:16.248Z,15
2022-12-08T01:37:16.220Z,15
2022-12-08T01:38:16.228Z,19
2022-12-08T01:39:16.201Z,19
2022-12-08T01:40:16.203Z,14
2022-12-08T01:41:16.206Z,15
2022-12-08T01:42:16.197Z,15
2022-12-08T01:43:16.191Z,16
2022-12-08T01:44:16.189Z,15
2022-12-08T01:45:16.164Z,13
2022-12-08T01:46:16.228Z,17
2022-12-08T01:47:16.193Z,16
2022-12-08T01:48:16.322Z,16
2022-12-08T01:49:16.160Z,14
2022-12-08T01:50:16.180Z,16
2022-12-08T01:51:16.194Z,14
2022-12-08T01:52:16.159Z,16
2022-12-08T01:53:16.194Z,13
2022-12-08T01:54:16.202Z,17
2022-12-08T01:55:16.174Z,14
2022-12-08T01:56:16.184Z,14
2022-12-08T01:57:16.167Z,15
2022-12-08T01:58:16.174Z,14
2022-12-08T01:59:16.155Z,15
2022-12-08T02:00:16.200Z,12
2022-12-08T02:01:16.227Z,14
2022-12-08T02:02:16.257Z,14
2022-12-08T02:03:16.180Z,13
2022-12-08T02:04:16.156Z,13
2022-12-08T02:05:16.178Z,14
2022-12-08T02:06:16.178Z,13
2022-12-08T02:08:16.250Z,15
2022-12-08T02:09:16.179Z,14
2022-12-08T02:10:16.159Z,14
2022-12-08T02:11:16.166Z,13
2022-12-08T02:12:16.164Z,14
2022-12-08T02:13:16.158Z,14
2022-12-08T02:14:16.161Z,15
2022-12-08T02:15:16.160Z,13
2022-12-08T02:16:16.229Z,14
2022-12-08T02:17:16.174Z,13
2022-12-08T02:18:16.156Z,14
2022-12-08T02:19:30.783Z,15
2022-12-08T02:20:16.172Z,13
2022-12-08T02:21:16.232Z,13
2022-12-08T02:22:16.169Z,13
2022-12-08T02:23:16.168Z,14
2022-12-08T02:24:16.158Z,13
2022-12-08T02:25:16.160Z,13
2022-12-08T02:26:16.168Z,14
2022-12-08T02:27:16.168Z,15
2022-12-08T02:28:16.152Z,14
2022-12-08T02:29:16.163Z,12
2022-12-08T02:30:16.162Z,16
2022-12-08T02:31:16.213Z,15
2022-12-08T02:32:16.183Z,12
2022-12-08T02:33:16.151Z,13
2022-12-08T02:34:16.175Z,13
2022-12-08T02:35:16.333Z,12
2022-12-08T02:36:16.158Z,14
2022-12-08T02:37:16.180Z,12
2022-12-08T02:38:16.181Z,14
2022-12-08T02:39:16.178Z,11
2022-12-08T02:40:16.455Z,15
2022-12-08T02:41:16.160Z,12
2022-12-08T02:42:16.166Z,13
2022-12-08T02:43:16.151Z,11
2022-12-08T02:44:16.155Z,12
2022-12-08T02:45:16.168Z,12
2022-12-08T02:46:16.306Z,14
2022-12-08T02:47:16.166Z,14
2022-12-08T02:48:16.171Z,12
2022-12-08T02:49:16.182Z,15
2022-12-08T02:50:16.160Z,12
2022-12-08T02:51:16.165Z,14
2022-12-08T02:52:16.173Z,12
2022-12-08T02:53:16.258Z,13
2022-12-08T02:54:16.153Z,13
2022-12-08T02:55:16.173Z,12
2022-12-08T02:56:16.166Z,11
2022-12-08T02:57:16.167Z,13
2022-12-08T02:58:16.168Z,13
2022-12-08T02:59:16.150Z,12
2022-12-08T03:00:16.176Z,13
2022-12-08T03:01:16.205Z,13
2022-12-08T03:02:16.258Z,15
2022-12-08T03:03:16.175Z,15
2022-12-08T03:04:16.156Z,13
2022-12-08T03:05:16.151Z,12
2022-12-08T03:06:16.145Z,13
2022-12-08T03:07:16.163Z,11
2022-12-08T03:08:16.268Z,13
2022-12-08T03:09:16.157Z,12
2022-12-08T03:10:16.184Z,13
2022-12-08T03:11:16.163Z,13
2022-12-08T03:12:16.191Z,14
2022-12-08T03:13:16.147Z,11
2022-12-08T03:14:16.158Z,12
2022-12-08T03:15:16.153Z,12
2022-12-08T03:16:16.199Z,13
2022-12-08T03:17:16.236Z,12
2022-12-08T03:18:16.213Z,13
2022-12-08T03:19:16.206Z,13
2022-12-08T03:20:16.280Z,12
2022-12-08T03:21:16.509Z,12
2022-12-08T03:22:16.407Z,12
2022-12-08T03:23:16.506Z,11
2022-12-08T03:24:16.166Z,13
2022-12-08T03:25:16.180Z,12
2022-12-08T03:26:16.169Z,11
2022-12-08T03:27:16.172Z,11
2022-12-08T03:28:16.164Z,12
2022-12-08T03:29:16.226Z,11
2022-12-08T03:30:16.170Z,11
2022-12-08T03:31:16.294Z,11
2022-12-08T03:32:16.177Z,14
2022-12-08T03:33:16.179Z,13
2022-12-08T03:34:16.161Z,10
2022-12-08T03:35:16.175Z,10
2022-12-08T03:36:16.234Z,11
2022-12-08T03:37:16.170Z,11
2022-12-08T03:38:16.179Z,11
2022-12-08T03:39:16.164Z,10
2022-12-08T03:40:16.174Z,9
2022-12-08T03:41:16.179Z,11
2022-12-08T03:42:16.186Z,12
2022-12-08T03:43:16.161Z,12
2022-12-08T03:44:16.155Z,12
2022-12-08T03:45:16.174Z,10
2022-12-08T03:46:16.176Z,10
2022-12-08T03:47:16.154Z,12
2022-12-08T03:48:16.179Z,13
2022-12-08T03:49:16.160Z,10
2022-12-08T03:50:16.148Z,13
2022-12-08T03:51:16.162Z,11
2022-12-08T03:52:16.158Z,12
2022-12-08T03:53:16.360Z,13
2022-12-08T03:54:16.163Z,12
2022-12-08T03:55:16.157Z,12
2022-12-08T03:56:16.241Z,13
2022-12-08T03:57:16.174Z,13
2022-12-08T03:58:16.151Z,12
2022-12-08T03:59:16.161Z,12
2022-12-08T04:00:16.148Z,12
2022-12-08T04:01:16.154Z,10
2022-12-08T04:02:16.239Z,12
2022-12-08T04:03:16.320Z,11
2022-12-08T04:04:16.150Z,11
2022-12-08T04:05:16.153Z,12
2022-12-08T04:06:16.154Z,11
2022-12-08T04:07:16.194Z,10
2022-12-08T04:08:16.364Z,8
2022-12-08T04:09:16.165Z,8
2022-12-08T04:10:16.146Z,10
2022-12-08T04:11:16.160Z,10
2022-12-08T04:12:16.189Z,10
2022-12-08T04:13:16.157Z,12
2022-12-08T04:14:16.154Z,12
2022-12-08T04:15:16.147Z,12
2022-12-08T04:16:16.176Z,10
2022-12-08T04:17:16.173Z,10
2022-12-08T04:18:16.161Z,13
2022-12-08T04:19:16.164Z,10
2022-12-08T04:20:16.194Z,10
2022-12-08T04:21:16.161Z,9
2022-12-08T04:22:16.146Z,9
2022-12-08T04:23:16.246Z,12
2022-12-08T04:24:16.176Z,12
2022-12-08T04:25:16.175Z,10
2022-12-08T04:26:16.159Z,10
2022-12-08T04:27:16.163Z,11
2022-12-08T04:28:26.223Z,12
2022-12-08T04:29:16.155Z,10
2022-12-08T04:30:16.184Z,10
2022-12-08T04:31:16.208Z,9
2022-12-08T04:32:16.148Z,10
2022-12-08T04:33:16.161Z,10
2022-12-08T04:34:16.226Z,10
2022-12-08T04:35:16.152Z,10
2022-12-08T04:36:16.149Z,9
2022-12-08T04:37:16.159Z,9
2022-12-08T04:38:16.142Z,11
2022-12-08T04:39:16.134Z,9
2022-12-08T04:40:16.149Z,9
2022-12-08T04:41:16.154Z,10
2022-12-08T04:42:16.137Z,10
2022-12-08T04:43:16.261Z,12
2022-12-08T04:44:16.164Z,12
2022-12-08T04:45:16.146Z,10
2022-12-08T04:46:16.247Z,10
2022-12-08T04:47:16.219Z,10
2022-12-08T04:48:16.153Z,9
2022-12-08T04:49:16.171Z,11
2022-12-08T04:50:16.249Z,11
2022-12-08T04:51:16.136Z,11
2022-12-08T04:52:16.162Z,11
2022-12-08T04:53:16.156Z,10
2022-12-08T04:54:16.153Z,10
2022-12-08T04:55:16.156Z,9
2022-12-08T04:56:16.145Z,9
2022-12-08T04:57:16.147Z,10
2022-12-08T04:58:16.169Z,11
2022-12-08T04:59:16.174Z,10
2022-12-08T05:00:16.153Z,11
2022-12-08T05:01:16.213Z,10
2022-12-08T05:02:16.236Z,10
2022-12-08T05:03:16.152Z,10
2022-12-08T05:04:16.146Z,12
2022-12-08T05:05:16.150Z,10
2022-12-08T05:06:16.220Z,12
2022-12-08T05:07:16.153Z,12
2022-12-08T05:08:16.241Z,12
2022-12-08T05:09:16.164Z,12
2022-12-08T05:10:16.152Z,10
2022-12-08T05:11:16.172Z,12
2022-12-08T05:12:16.143Z,10
2022-12-08T05:13:16.146Z,12
2022-12-08T05:14:16.172Z,14
2022-12-08T05:15:16.145Z,12
2022-12-08T05:16:16.279Z,11
2022-12-08T05:17:16.147Z,12
2022-12-08T05:18:16.138Z,11
2022-12-08T05:19:16.151Z,9
2022-12-08T05:20:16.141Z,10
2022-12-08T05:21:16.139Z,10
2022-12-08T05:22:16.141Z,9
2022-12-08T05:23:16.155Z,10
2022-12-08T05:24:16.161Z,9
2022-12-08T05:25:16.177Z,9
2022-12-08T05:26:16.149Z,10
2022-12-08T05:27:16.169Z,9
2022-12-08T05:28:41.845Z,9
2022-12-08T05:29:16.154Z,9
2022-12-08T05:30:16.222Z,10
2022-12-08T05:31:16.338Z,11
2022-12-08T05:32:16.210Z,11
2022-12-08T05:33:16.132Z,10
2022-12-08T05:34:16.149Z,8
2022-12-08T05:35:16.142Z,10
2022-12-08T05:36:16.146Z,9
2022-12-08T05:37:16.156Z,10
2022-12-08T05:38:16.155Z,11
2022-12-08T05:39:16.178Z,9
2022-12-08T05:40:16.143Z,10
2022-12-08T05:41:16.149Z,10
2022-12-08T05:42:19.334Z,9
2022-12-08T05:43:16.139Z,9
2022-12-08T05:44:16.141Z,9
2022-12-08T05:45:16.170Z,9
2022-12-08T05:46:16.260Z,10
2022-12-08T05:47:16.160Z,8
2022-12-08T05:48:16.130Z,10
2022-12-08T05:49:16.226Z,11
2022-12-08T05:50:16.143Z,11
2022-12-08T05:51:16.139Z,9
2022-12-08T05:52:16.167Z,9
2022-12-08T05:53:16.146Z,10
2022-12-08T05:54:16.136Z,11
2022-12-08T05:55:16.153Z,13
2022-12-08T05:56:16.233Z,12
2022-12-08T05:57:16.136Z,12
2022-12-08T05:58:16.145Z,11
2022-12-08T05:59:16.160Z,13
2022-12-08T06:00:16.143Z,13
2022-12-08T06:01:16.185Z,13
2022-12-08T06:02:16.408Z,12
2022-12-08T06:03:16.242Z,12
2022-12-08T06:04:16.154Z,13
2022-12-08T06:05:16.378Z,15
2022-12-08T06:06:16.174Z,14
2022-12-08T06:07:16.403Z,15
2022-12-08T06:08:16.230Z,14
2022-12-08T06:09:16.141Z,14
2022-12-08T06:10:16.155Z,16
2022-12-08T06:11:16.131Z,14
2022-12-08T06:12:16.234Z,15
2022-12-08T06:13:16.147Z,15
2022-12-08T06:14:16.136Z,14
2022-12-08T06:15:16.146Z,14
2022-12-08T06:16:16.215Z,16
2022-12-08T06:17:16.172Z,13
2022-12-08T06:18:16.146Z,15
2022-12-08T06:19:16.137Z,15
2022-12-08T06:20:16.148Z,13
2022-12-08T06:21:16.222Z,16
2022-12-08T06:22:16.152Z,16
2022-12-08T06:23:16.149Z,17
2022-12-08T06:24:16.152Z,16
2022-12-08T06:25:16.147Z,16
2022-12-08T06:26:16.142Z,17
2022-12-08T06:27:16.157Z,16
2022-12-08T06:28:38.408Z,18
2022-12-08T06:29:16.152Z,19
2022-12-08T06:30:16.262Z,18
2022-12-08T06:31:16.167Z,22
2022-12-08T06:32:16.253Z,16
2022-12-08T06:33:16.163Z,16
2022-12-08T06:34:16.177Z,18
2022-12-08T06:35:16.146Z,19
2022-12-08T06:36:16.170Z,18
2022-12-08T06:37:16.139Z,17
2022-12-08T06:38:16.144Z,19
2022-12-08T06:39:16.140Z,22
2022-12-08T06:40:16.156Z,19
2022-12-08T06:41:16.222Z,20
2022-12-08T06:42:16.145Z,20
2022-12-08T06:43:16.139Z,21
2022-12-08T06:44:16.148Z,20
2022-12-08T06:45:16.134Z,22
2022-12-08T06:46:16.287Z,19
2022-12-08T06:47:16.181Z,20
2022-12-08T06:48:16.144Z,18
2022-12-08T06:49:16.137Z,19
2022-12-08T06:50:16.138Z,19
2022-12-08T06:51:16.158Z,18
2022-12-08T06:52:16.138Z,19
2022-12-08T06:53:16.138Z,20
2022-12-08T06:54:16.151Z,18
2022-12-08T06:55:35.547Z,17
2022-12-08T06:56:16.138Z,18
2022-12-08T06:57:16.245Z,20
2022-12-08T06:58:16.146Z,20
2022-12-08T06:59:16.139Z,16
2022-12-08T07:00:16.137Z,19
2022-12-08T07:01:16.174Z,22
2022-12-08T07:02:16.187Z,17
2022-12-08T07:03:16.132Z,20
2022-12-08T07:04:16.149Z,18
2022-12-08T07:05:16.137Z,18
2022-12-08T07:06:16.226Z,14
2022-12-08T07:07:16.150Z,14
2022-12-08T07:08:16.314Z,19
2022-12-08T07:09:16.137Z,19
2022-12-08T07:10:16.140Z,18
2022-12-08T07:11:21.219Z,18
2022-12-08T07:12:16.148Z,18
2022-12-08T07:13:16.162Z,19
2022-12-08T07:14:16.157Z,20
2022-12-08T07:15:16.208Z,17
2022-12-08T07:16:16.312Z,17
2022-12-08T07:17:16.198Z,16
2022-12-08T07:18:16.167Z,19
2022-12-08T07:19:16.150Z,18
2022-12-08T07:20:16.146Z,20
2022-12-08T07:21:16.155Z,16
2022-12-08T07:22:16.134Z,18
2022-12-08T07:23:16.137Z,17
2022-12-08T07:24:16.216Z,18
2022-12-08T07:25:16.165Z,18
2022-12-08T07:26:16.138Z,18
2022-12-08T07:27:16.141Z,16
2022-12-08T07:29:19.306Z,17
2022-12-08T07:30:16.136Z,17
2022-12-08T07:31:16.238Z,19
2022-12-08T07:32:16.132Z,20
2022-12-08T07:33:16.142Z,16
2022-12-08T07:34:16.150Z,15
2022-12-08T07:35:16.133Z,18
2022-12-08T07:36:16.143Z,14
2022-12-08T07:37:16.154Z,17
2022-12-08T07:38:16.154Z,19
2022-12-08T07:39:16.139Z,21
2022-12-08T07:40:16.153Z,17
2022-12-08T07:41:16.129Z,19
2022-12-08T07:42:16.143Z,16
2022-12-08T07:43:16.140Z,17
2022-12-08T07:44:16.140Z,18
2022-12-08T07:45:16.140Z,20
2022-12-08T07:46:16.229Z,17
2022-12-08T07:47:16.151Z,17
2022-12-08T07:48:16.132Z,18
2022-12-08T07:49:16.232Z,19
2022-12-08T07:50:16.152Z,19
2022-12-08T07:51:16.136Z,18
2022-12-08T07:52:16.147Z,15
2022-12-08T07:53:16.135Z,21
2022-12-08T07:54:16.148Z,18
2022-12-08T07:55:16.155Z,16
2022-12-08T07:56:16.185Z,16
2022-12-08T07:57:16.145Z,18
2022-12-08T07:58:16.143Z,18
2022-12-08T07:59:16.130Z,16
2022-12-08T08:00:16.133Z,18
2022-12-08T08:01:16.342Z,15
2022-12-08T08:02:24.080Z,18
2022-12-08T08:03:16.201Z,14
2022-12-08T08:04:16.169Z,17
2022-12-08T08:05:16.196Z,18
2022-12-08T08:06:16.133Z,18
2022-12-08T08:07:16.145Z,19
2022-12-08T08:08:16.226Z,20
2022-12-08T08:09:16.138Z,20
2022-12-08T08:10:16.138Z,50
2022-12-08T08:11:20.800Z,98
2022-12-08T08:12:31.192Z,162
2022-12-08T08:13:16.149Z,75
2022-12-08T08:14:16.135Z,111
2022-12-08T08:15:16.148Z,66
2022-12-08T08:16:16.260Z,41
2022-12-08T08:17:16.202Z,28
2022-12-08T08:18:16.135Z,22
2022-12-08T08:19:16.129Z,19
2022-12-08T08:20:16.164Z,20
2022-12-08T08:21:43.668Z,18
2022-12-08T08:22:16.161Z,18
2022-12-08T08:23:16.210Z,17
2022-12-08T08:24:16.131Z,17
2022-12-08T08:25:16.147Z,17
2022-12-08T08:26:16.141Z,18
2022-12-08T08:27:16.119Z,19
2022-12-08T08:28:16.129Z,23
2022-12-08T08:29:16.141Z,21
2022-12-08T08:30:20.418Z,22
2022-12-08T08:31:16.259Z,22
2022-12-08T08:32:16.132Z,22
2022-12-08T08:33:16.139Z,22
2022-12-08T08:34:16.134Z,19
2022-12-08T08:35:16.126Z,20
2022-12-08T08:36:16.143Z,19
2022-12-08T08:37:16.229Z,18
2022-12-08T08:38:16.126Z,22
2022-12-08T08:39:16.138Z,18
2022-12-08T08:40:16.140Z,20
2022-12-08T08:41:16.142Z,18
2022-12-08T08:42:16.138Z,16
2022-12-08T08:43:16.142Z,15
2022-12-08T08:44:16.145Z,18
2022-12-08T08:45:16.129Z,19
2022-12-08T08:46:16.229Z,20
2022-12-08T08:47:16.139Z,17
2022-12-08T08:48:16.129Z,19
2022-12-08T08:49:16.148Z,19
2022-12-08T08:50:16.139Z,19
2022-12-08T08:51:16.149Z,20
2022-12-08T08:52:16.151Z,18
2022-12-08T08:53:16.136Z,20
2022-12-08T08:54:16.139Z,18
2022-12-08T08:55:16.149Z,19
2022-12-08T08:56:16.133Z,19
2022-12-08T08:57:18.416Z,19
2022-12-08T08:58:16.141Z,21
2022-12-08T08:59:16.148Z,19
2022-12-08T09:00:16.135Z,18
2022-12-08T09:01:16.188Z,20
2022-12-08T09:02:16.246Z,17
2022-12-08T09:03:16.699Z,18
2022-12-08T09:04:16.232Z,18
2022-12-08T09:05:16.138Z,19
2022-12-08T09:06:16.265Z,18
2022-12-08T09:07:16.145Z,21
2022-12-08T09:08:16.287Z,19
2022-12-08T09:09:16.141Z,19
2022-12-08T09:10:16.145Z,24
2022-12-08T09:11:16.126Z,19
2022-12-08T09:12:16.130Z,18
2022-12-08T09:13:16.124Z,21
2022-12-08T09:14:16.160Z,20
2022-12-08T09:15:16.133Z,27
2022-12-08T09:16:16.168Z,20
2022-12-08T09:17:16.154Z,21
2022-12-08T09:18:16.152Z,21
2022-12-08T09:19:16.128Z,18
2022-12-08T09:20:16.137Z,18
2022-12-08T09:21:16.151Z,21
2022-12-08T09:22:16.165Z,19
2022-12-08T09:23:16.120Z,22
2022-12-08T09:24:16.189Z,20
2022-12-08T09:25:16.131Z,20
2022-12-08T09:26:16.133Z,19
2022-12-08T09:27:16.156Z,18
2022-12-08T09:28:16.124Z,21
2022-12-08T09:29:16.134Z,21
2022-12-08T09:30:16.136Z,21
2022-12-08T09:31:16.296Z,23
2022-12-08T09:32:16.135Z,23
2022-12-08T09:33:16.138Z,19
2022-12-08T09:34:16.181Z,22
2022-12-08T09:35:16.126Z,22
2022-12-08T09:36:16.127Z,24
2022-12-08T09:37:16.158Z,23
2022-12-08T09:38:16.139Z,22
2022-12-08T09:39:16.148Z,23
2022-12-08T09:40:16.141Z,22
2022-12-08T09:41:16.355Z,19
2022-12-08T09:42:16.127Z,19
2022-12-08T09:43:16.115Z,22
2022-12-08T09:44:16.140Z,19
2022-12-08T09:45:16.126Z,20
2022-12-08T09:46:16.219Z,22
2022-12-08T09:47:16.181Z,19
2022-12-08T09:48:16.211Z,19
2022-12-08T09:49:16.185Z,21
2022-12-08T09:50:16.190Z,21
2022-12-08T09:51:16.175Z,22
2022-12-08T09:52:16.188Z,47
2022-12-08T09:53:16.227Z,30
2022-12-08T09:54:16.199Z,22
2022-12-08T09:55:16.194Z,25
2022-12-08T09:56:16.219Z,19
2022-12-08T09:57:16.182Z,19
2022-12-08T09:58:16.207Z,17
2022-12-08T09:59:16.197Z,15
2022-12-08T10:00:16.175Z,13
2022-12-08T10:01:16.277Z,14
2022-12-08T10:02:16.220Z,14
2022-12-08T10:03:17.038Z,13
2022-12-08T10:04:16.180Z,13
2022-12-08T10:05:16.225Z,14
2022-12-08T10:06:16.198Z,11
2022-12-08T10:07:16.189Z,13
2022-12-08T10:08:16.230Z,13
2022-12-08T10:09:21.137Z,14
2022-12-08T10:10:16.192Z,14
2022-12-08T10:11:16.192Z,12
2022-12-08T10:12:16.183Z,14
2022-12-08T10:13:16.178Z,11
2022-12-08T10:14:16.212Z,10
2022-12-08T10:15:16.187Z,13
2022-12-08T10:16:23.067Z,11
2022-12-08T10:17:16.268Z,12
2022-12-08T10:18:16.184Z,10
2022-12-08T10:19:16.196Z,12
2022-12-08T10:21:16.188Z,9
2022-12-08T10:22:16.187Z,9
2022-12-08T10:23:16.181Z,10
2022-12-08T10:24:16.216Z,11
2022-12-08T10:25:16.195Z,11
2022-12-08T10:26:16.178Z,11
2022-12-08T10:27:16.179Z,10
2022-12-08T10:28:16.180Z,9
2022-12-08T10:29:16.202Z,10
2022-12-08T10:30:16.203Z,9
2022-12-08T10:31:16.208Z,8
2022-12-08T10:32:16.182Z,9
2022-12-08T10:33:16.177Z,10
2022-12-08T10:34:16.200Z,8
2022-12-08T10:35:16.206Z,7
2022-12-08T10:36:16.200Z,7
2022-12-08T10:37:16.202Z,7
2022-12-08T10:38:16.187Z,5
2022-12-08T10:39:16.179Z,6
2022-12-08T10:40:16.183Z,8
2022-12-08T10:41:16.176Z,6
2022-12-08T10:42:16.179Z,7
2022-12-08T10:43:16.207Z,6
2022-12-08T10:44:16.191Z,6
2022-12-08T10:45:16.179Z,6
2022-12-08T10:46:16.264Z,5
2022-12-08T10:47:16.189Z,5
2022-12-08T10:48:16.176Z,5
2022-12-08T10:49:16.181Z,4
2022-12-08T10:50:16.188Z,5
2022-12-08T10:51:16.191Z,6
2022-12-08T10:52:16.181Z,5
2022-12-08T10:53:16.188Z,6
2022-12-08T10:54:19.052Z,6
2022-12-08T10:55:16.242Z,6
2022-12-08T10:56:16.186Z,6
2022-12-08T10:57:16.185Z,6
2022-12-08T10:58:16.188Z,7
2022-12-08T10:59:16.191Z,7
2022-12-08T11:00:16.319Z,6
2022-12-08T11:01:16.237Z,6
2022-12-08T11:02:16.303Z,7
2022-12-08T11:03:16.190Z,8
2022-12-08T11:04:16.194Z,7
2022-12-08T11:05:16.186Z,8
2022-12-08T11:06:16.198Z,9
2022-12-08T11:07:16.191Z,29
2022-12-08T11:08:16.251Z,44
2022-12-08T11:09:16.186Z,30
2022-12-08T11:10:16.187Z,37
2022-12-08T11:11:16.936Z,63
2022-12-08T11:12:16.177Z,40
2022-12-08T11:13:16.190Z,22
2022-12-08T11:14:16.210Z,13
2022-12-08T11:15:16.200Z,11
2022-12-08T11:16:16.273Z,9
2022-12-08T11:17:16.199Z,10
2022-12-08T11:18:16.176Z,11
2022-12-08T11:19:16.214Z,13
2022-12-08T11:20:16.209Z,15
2022-12-08T11:21:16.176Z,11
2022-12-08T11:22:16.202Z,12
2022-12-08T11:23:16.189Z,12
2022-12-08T11:24:16.183Z,12
2022-12-08T11:25:16.176Z,12
2022-12-08T11:26:16.222Z,13
2022-12-08T11:27:16.186Z,13
2022-12-08T11:28:16.169Z,13
2022-12-08T11:29:16.192Z,13
2022-12-08T11:30:16.496Z,15
2022-12-08T11:31:16.229Z,15
2022-12-08T11:32:16.172Z,14
2022-12-08T11:33:16.223Z,14
2022-12-08T11:34:16.170Z,14
2022-12-08T11:35:16.176Z,13
2022-12-08T11:36:16.177Z,13
2022-12-08T11:37:16.264Z,14
2022-12-08T11:38:21.596Z,15
2022-12-08T11:39:16.171Z,13
2022-12-08T11:40:16.207Z,15
2022-12-08T11:41:16.908Z,12
2022-12-08T11:42:16.176Z,14
2022-12-08T11:43:16.182Z,17
2022-12-08T11:44:16.205Z,14
2022-12-08T11:45:16.177Z,17
2022-12-08T11:46:16.268Z,16
2022-12-08T11:47:16.284Z,13
2022-12-08T11:48:16.175Z,13
2022-12-08T11:49:16.183Z,15
2022-12-08T11:50:18.252Z,16
2022-12-08T11:51:16.206Z,16
2022-12-08T11:52:16.169Z,14
2022-12-08T11:53:16.174Z,13
2022-12-08T11:54:16.186Z,17
2022-12-08T11:55:16.270Z,15
2022-12-08T11:56:16.192Z,13
2022-12-08T11:57:16.272Z,13
2022-12-08T11:58:16.203Z,15
2022-12-08T11:59:26.183Z,12
2022-12-08T12:00:16.205Z,12
2022-12-08T12:01:16.193Z,12
2022-12-08T12:02:16.243Z,14
2022-12-08T12:03:16.229Z,15
2022-12-08T12:04:16.174Z,15
2022-12-08T12:05:23.551Z,12
2022-12-08T12:06:38.310Z,12
2022-12-08T12:07:16.224Z,12
2022-12-08T12:08:16.214Z,15
2022-12-08T12:09:16.172Z,20
2022-12-08T12:10:16.172Z,19
2022-12-08T12:11:16.193Z,17
2022-12-08T12:12:16.184Z,15
2022-12-08T12:13:16.175Z,13
2022-12-08T12:14:16.166Z,14
2022-12-08T12:15:16.202Z,12
2022-12-08T12:16:16.264Z,13
2022-12-08T12:17:16.202Z,15
2022-12-08T12:18:17.080Z,13
2022-12-08T12:19:16.172Z,15
2022-12-08T12:20:16.197Z,11
2022-12-08T12:21:16.172Z,11
2022-12-08T12:22:16.240Z,11
2022-12-08T12:23:16.190Z,12
2022-12-08T12:24:19.689Z,12
2022-12-08T12:25:16.212Z,12
2022-12-08T12:26:16.191Z,12
2022-12-08T12:27:16.440Z,11
2022-12-08T12:28:16.202Z,16
2022-12-08T12:29:16.173Z,16
2022-12-08T12:30:16.191Z,16
2022-12-08T12:31:16.244Z,16
2022-12-08T12:32:16.179Z,19
2022-12-08T12:33:16.179Z,35
2022-12-08T12:34:16.217Z,45
2022-12-08T12:35:16.191Z,42
2022-12-08T12:36:16.167Z,38
2022-12-08T12:37:16.210Z,43
2022-12-08T12:38:16.179Z,50
2022-12-08T12:39:16.233Z,44
2022-12-08T12:40:16.167Z,34
2022-12-08T12:41:18.678Z,23
2022-12-08T12:42:16.204Z,22
2022-12-08T12:43:16.178Z,31
2022-12-08T12:44:16.184Z,29
2022-12-08T12:45:16.214Z,30
2022-12-08T12:46:16.251Z,30
2022-12-08T12:47:16.194Z,33
2022-12-08T12:48:16.184Z,32
2022-12-08T12:49:16.166Z,21
2022-12-08T12:50:16.184Z,21
2022-12-08T12:51:16.200Z,20
2022-12-08T12:52:16.183Z,16
2022-12-08T12:53:16.181Z,11
2022-12-08T12:54:16.188Z,14
2022-12-08T12:55:16.284Z,14
2022-12-08T12:56:16.189Z,12
2022-12-08T12:57:16.202Z,13
2022-12-08T12:58:16.169Z,14
2022-12-08T12:59:32.444Z,14
2022-12-08T13:00:16.179Z,14
2022-12-08T13:01:16.212Z,12
2022-12-08T13:02:16.294Z,11
2022-12-08T13:03:16.173Z,13
2022-12-08T13:04:16.176Z,13
2022-12-08T13:05:16.175Z,15
2022-12-08T13:06:16.193Z,14
2022-12-08T13:07:16.192Z,13
2022-12-08T13:08:16.257Z,12
2022-12-08T13:09:16.172Z,13
2022-12-08T13:10:16.191Z,15
2022-12-08T13:11:16.170Z,14
2022-12-08T13:12:16.212Z,14
2022-12-08T13:13:16.172Z,16
2022-12-08T13:14:16.207Z,12
2022-12-08T13:15:16.179Z,14
2022-12-08T13:16:19.380Z,13
2022-12-08T13:17:16.292Z,10
2022-12-08T13:18:16.189Z,13
2022-12-08T13:19:16.197Z,12
2022-12-08T13:20:16.184Z,11
2022-12-08T13:21:16.164Z,11
2022-12-08T13:22:16.200Z,12
2022-12-08T13:23:16.173Z,10
2022-12-08T13:24:16.176Z,12
2022-12-08T13:25:16.186Z,12
2022-12-08T13:26:16.185Z,8
2022-12-08T13:27:16.178Z,10
2022-12-08T13:28:16.171Z,10
2022-12-08T13:29:16.192Z,9
2022-12-08T13:30:16.194Z,8
2022-12-08T13:31:16.219Z,9
2022-12-08T13:32:16.192Z,13
2022-12-08T13:33:18.222Z,9
2022-12-08T13:34:16.221Z,8
2022-12-08T13:35:16.201Z,8
2022-12-08T13:36:16.187Z,10
2022-12-08T13:37:16.204Z,9
2022-12-08T13:38:16.173Z,9
2022-12-08T13:39:16.190Z,11
2022-12-08T13:40:16.183Z,10
2022-12-08T13:41:16.168Z,10
2022-12-08T13:42:16.193Z,9
2022-12-08T13:43:16.194Z,9
2022-12-08T13:45:33.521Z,7
2022-12-08T13:47:33.268Z,8
2022-12-08T13:48:42.232Z,7
2022-12-08T13:51:51.224Z,9
2022-12-08T13:54:16.396Z,8
2022-12-08T13:55:01.828Z,9
2022-12-08T13:57:16.400Z,6
2022-12-08T13:58:16.212Z,8
2022-12-08T13:59:38.448Z,7
2022-12-08T14:00:16.175Z,7
2022-12-08T14:01:16.219Z,8
2022-12-08T14:02:16.291Z,7
2022-12-08T14:03:16.244Z,7
2022-12-08T14:04:47.917Z,8
2022-12-08T14:05:18.586Z,8
2022-12-08T14:06:16.420Z,9
2022-12-08T14:07:16.197Z,9
2022-12-08T14:08:30.048Z,8
2022-12-08T14:09:16.235Z,9
2022-12-08T14:10:16.170Z,8
2022-12-08T14:11:16.167Z,6
2022-12-08T14:12:16.197Z,8
2022-12-08T14:13:16.169Z,9
2022-12-08T14:14:27.253Z,9
2022-12-08T14:15:16.603Z,8
2022-12-08T14:16:16.254Z,9
2022-12-08T14:17:16.189Z,11
2022-12-08T14:18:16.169Z,9
2022-12-08T14:19:16.163Z,10
2022-12-08T14:20:16.186Z,7
2022-12-08T14:21:22.897Z,8
2022-12-08T14:22:16.198Z,8
2022-12-08T14:23:16.170Z,8
2022-12-08T14:24:16.172Z,7
2022-12-08T14:25:16.176Z,8
2022-12-08T14:26:16.169Z,9
2022-12-08T14:27:16.185Z,7
2022-12-08T14:28:16.206Z,9
2022-12-08T14:29:16.218Z,9